WXM80 ListenWXM80 Stop

You find our weather info also at:

UK Metoffice

WeatherCloud

Weather Underground

Northeastern Weather Network

AWEKAS

Citizen Weather Observer Program (CWOP)

HAMweather, WeatherForYou, PWS Weather


Weather Underground History page Text

Daily Summary for April 8, 2016 Units:  English    Metric   Both
« Previous Day
Next Day »
Daily Weekly Monthly Yearly Custom
  High: Low: Average:
Temperature: 52.0 °F 40.9 °F 46.6 °F
Dew Point: 44.8 °F 27.0 °F 34.1 °F
Humidity: 82 % 45 % 62 %
Wind Speed: 12.8 mph 0.1 mph 5.8 mph
Wind Gust: 21.9 mph - -
Wind:- - WSW
Pressure: 29.77 in 29.42 in -
Precipitation: 0.13 in    
Historical Graphs
 
 
Tabular Data for April 8, 2016
Time Temperature Dew Point Pressure Wind Wind Speed Wind Gust Humidity Rainfall Rate (Hourly)
00:02 50.5 °F 44.6 °F 29.43 in SW 5.8 mph 7.0 mph 80 % 0.00 in
00:07 50.4 °F 44.5 °F 29.43 in SSW 3.1 mph 6.9 mph 80 % 0.00 in
00:12 50.4 °F 44.5 °F 29.43 in SSW 3.0 mph 4.0 mph 80 % 0.00 in
00:17 50.3 °F 44.7 °F 29.43 in SW 4.1 mph 5.8 mph 81 % 0.00 in
00:22 50.3 °F 44.7 °F 29.43 in SSW 5.1 mph 6.9 mph 81 % 0.00 in
00:27 50.2 °F 44.6 °F 29.44 in South 4.9 mph 6.9 mph 81 % 0.00 in
00:37 50.1 °F 44.8 °F 29.44 in SSW 5.6 mph 8.0 mph 82 % 0.00 in
00:42 50.1 °F 44.8 °F 29.44 in SW 3.3 mph 4.6 mph 82 % 0.00 in
00:58 50.1 °F 44.5 °F 29.43 in West 9.8 mph 15.0 mph 81 % 0.00 in
01:03 50.3 °F 44.0 °F 29.43 in WSW 7.0 mph 11.0 mph 79 % 0.00 in
01:08 50.3 °F 43.4 °F 29.42 in SW 12.0 mph 15.0 mph 77 % 0.00 in
01:13 50.3 °F 42.7 °F 29.42 in WNW 10.7 mph 16.1 mph 75 % 0.00 in
01:18 50.3 °F 42.3 °F 29.43 in SW 9.9 mph 18.4 mph 74 % 0.00 in
01:23 50.2 °F 42.6 °F 29.43 in WSW 9.6 mph 13.8 mph 75 % 0.00 in
01:28 50.1 °F 42.1 °F 29.43 in WNW 9.2 mph 11.5 mph 74 % 0.00 in
01:33 49.9 °F 41.9 °F 29.44 in SSW 9.5 mph 16.1 mph 74 % 0.00 in
01:39 49.7 °F 41.7 °F 29.43 in West 9.7 mph 17.3 mph 74 % 0.00 in
01:44 49.6 °F 42.0 °F 29.44 in WSW 8.3 mph 11.5 mph 75 % 0.00 in
01:49 49.5 °F 41.9 °F 29.44 in WSW 8.7 mph 13.8 mph 75 % 0.00 in
01:54 49.4 °F 41.8 °F 29.44 in WSW 6.4 mph 11.5 mph 75 % 0.00 in
01:59 49.3 °F 41.7 °F 29.44 in SW 4.3 mph 9.0 mph 75 % 0.00 in
02:04 49.2 °F 41.6 °F 29.44 in SSW 6.0 mph 9.2 mph 75 % 0.00 in
02:09 49.0 °F 41.4 °F 29.44 in WSW 8.1 mph 16.1 mph 75 % 0.00 in
02:14 48.9 °F 41.3 °F 29.44 in WSW 6.4 mph 11.5 mph 75 % 0.00 in
02:19 48.7 °F 41.1 °F 29.44 in South 6.8 mph 11.5 mph 75 % 0.00 in
02:24 48.6 °F 41.0 °F 29.44 in WSW 4.9 mph 5.8 mph 75 % 0.00 in
02:30 48.5 °F 40.9 °F 29.45 in SW 6.1 mph 12.7 mph 75 % 0.00 in
02:35 48.4 °F 40.8 °F 29.44 in SSW 5.6 mph 9.2 mph 75 % 0.00 in
02:40 48.3 °F 40.7 °F 29.43 in SW 5.6 mph 10.4 mph 75 % 0.00 in
02:45 48.2 °F 40.6 °F 29.43 in SSW 7.1 mph 11.5 mph 75 % 0.00 in
02:50 48.1 °F 40.5 °F 29.43 in SW 5.2 mph 10.4 mph 75 % 0.00 in
02:55 47.9 °F 40.4 °F 29.44 in SW 7.4 mph 13.8 mph 75 % 0.00 in
03:00 47.8 °F 40.3 °F 29.44 in WSW 4.7 mph 11.0 mph 75 % 0.00 in
03:05 47.7 °F 40.2 °F 29.44 in West 7.5 mph 10.4 mph 75 % 0.00 in
03:10 47.7 °F 40.2 °F 29.45 in WSW 5.4 mph 8.1 mph 75 % 0.00 in
03:16 47.5 °F 40.3 °F 29.45 in SSW 6.8 mph 12.0 mph 76 % 0.00 in
03:21 47.4 °F 39.9 °F 29.45 in SW 5.0 mph 9.2 mph 75 % 0.00 in
03:26 47.3 °F 39.8 °F 29.45 in SW 5.7 mph 10.4 mph 75 % 0.00 in
03:31 47.2 °F 39.7 °F 29.46 in South 4.5 mph 11.5 mph 75 % 0.00 in
03:36 47.1 °F 39.6 °F 29.46 in SW 6.3 mph 11.5 mph 75 % 0.00 in
03:41 47.1 °F 39.2 °F 29.46 in SW 7.0 mph 11.5 mph 74 % 0.00 in
03:46 47.1 °F 39.2 °F 29.45 in WSW 3.1 mph 4.6 mph 74 % 0.00 in
03:51 47.0 °F 39.5 °F 29.45 in WSW 6.1 mph 14.0 mph 75 % 0.00 in
03:56 47.0 °F 39.5 °F 29.45 in WSW 3.7 mph 8.1 mph 75 % 0.00 in
04:01 47.0 °F 39.5 °F 29.45 in WSW 7.1 mph 11.5 mph 75 % 0.00 in
04:07 47.0 °F 39.5 °F 29.45 in West 6.6 mph 15.0 mph 75 % 0.00 in
04:12 47.0 °F 39.5 °F 29.45 in SW 6.7 mph 11.5 mph 75 % 0.00 in
04:17 47.0 °F 39.1 °F 29.45 in West 6.9 mph 12.7 mph 74 % 0.00 in
04:22 46.9 °F 39.0 °F 29.45 in WSW 7.2 mph 12.0 mph 74 % 0.00 in
04:27 47.0 °F 38.8 °F 29.46 in WSW 4.2 mph 8.1 mph 73 % 0.00 in
04:32 46.9 °F 39.0 °F 29.46 in SSW 4.4 mph 8.1 mph 74 % 0.00 in
04:37 46.9 °F 39.0 °F 29.46 in SW 4.9 mph 10.4 mph 74 % 0.00 in
04:42 46.8 °F 39.3 °F 29.46 in WSW 4.9 mph 8.1 mph 75 % 0.00 in
04:47 46.7 °F 39.2 °F 29.47 in West 4.8 mph 8.1 mph 75 % 0.00 in
04:52 46.6 °F 39.1 °F 29.47 in West 7.1 mph 8.1 mph 75 % 0.00 in
04:58 46.7 °F 39.2 °F 29.47 in West 3.7 mph 6.9 mph 75 % 0.00 in
05:03 46.6 °F 39.1 °F 29.47 in WSW 5.2 mph 11.5 mph 75 % 0.00 in
05:08 46.7 °F 39.5 °F 29.47 in West 1.8 mph 9.2 mph 76 % 0.00 in
05:18 46.7 °F 39.9 °F 29.47 in WSW 1.8 mph 7.0 mph 77 % 0.00 in
05:28 46.7 °F 40.2 °F 29.47 in WSW 1.8 mph 4.6 mph 78 % 0.00 in
05:33 46.7 °F 40.2 °F 29.48 in SSW 5.7 mph 9.0 mph 78 % 0.00 in
05:38 46.6 °F 39.4 °F 29.48 in WSW 5.6 mph 9.2 mph 76 % 0.00 in
05:49 46.3 °F 38.8 °F 29.49 in WSW 5.9 mph 11.5 mph 75 % 0.00 in
05:54 46.0 °F 38.2 °F 29.49 in SW 5.9 mph 11.5 mph 74 % 0.00 in
05:59 45.9 °F 38.1 °F 29.48 in SSW 5.6 mph 8.0 mph 74 % 0.00 in
06:04 45.7 °F 37.9 °F 29.48 in SSW 5.8 mph 11.5 mph 74 % 0.00 in
06:09 45.4 °F 37.6 °F 29.49 in WSW 8.0 mph 12.7 mph 74 % 0.00 in
06:19 45.1 °F 37.3 °F 29.49 in SSW 4.9 mph 8.0 mph 74 % 0.00 in
06:24 44.9 °F 36.4 °F 29.50 in SW 5.8 mph 11.5 mph 72 % 0.00 in
06:29 44.8 °F 36.7 °F 29.50 in SW 8.8 mph 8.8 mph 73 % 0.00 in
06:34 44.7 °F 36.6 °F 29.50 in SSW 4.8 mph 11.5 mph 73 % 0.00 in
06:40 44.5 °F 36.4 °F 29.50 in SW 8.1 mph 12.7 mph 73 % 0.00 in
06:45 44.5 °F 36.0 °F 29.50 in SW 3.8 mph 9.2 mph 72 % 0.00 in
06:50 44.5 °F 36.0 °F 29.50 in SSW 6.4 mph 11.5 mph 72 % 0.00 in
06:55 44.6 °F 36.1 °F 29.51 in WSW 4.3 mph 10.0 mph 72 % 0.00 in
07:00 44.7 °F 35.9 °F 29.51 in SW 6.0 mph 11.5 mph 71 % 0.00 in
07:05 44.7 °F 35.5 °F 29.51 in SW 5.4 mph 8.1 mph 70 % 0.00 in
07:10 44.9 °F 35.7 °F 29.51 in WSW 5.5 mph 10.0 mph 70 % 0.00 in
07:15 45.0 °F 35.8 °F 29.52 in SSW 3.7 mph 5.8 mph 70 % 0.00 in
07:20 45.1 °F 35.9 °F 29.52 in WSW 5.1 mph 10.4 mph 70 % 0.00 in
07:25 45.2 °F 35.6 °F 29.52 in SW 5.7 mph 10.4 mph 69 % 0.00 in
07:31 45.3 °F 35.7 °F 29.52 in SW 3.4 mph 6.9 mph 69 % 0.00 in
07:36 45.4 °F 35.8 °F 29.53 in West 3.5 mph 9.2 mph 69 % 0.00 in
07:41 45.5 °F 35.5 °F 29.53 in SSW 6.3 mph 9.2 mph 68 % 0.00 in
07:46 45.7 °F 35.7 °F 29.53 in WSW 6.1 mph 8.1 mph 68 % 0.00 in
07:51 45.9 °F 36.3 °F 29.53 in West 6.4 mph 9.0 mph 69 % 0.00 in
07:56 46.1 °F 36.1 °F 29.53 in South 8.0 mph 11.5 mph 68 % 0.00 in
08:01 46.3 °F 35.9 °F 29.53 in West 6.4 mph 11.5 mph 67 % 0.00 in
08:06 46.7 °F 36.3 °F 29.53 in SW 5.5 mph 12.7 mph 67 % 0.00 in
08:11 47.0 °F 36.2 °F 29.53 in SW 7.1 mph 13.0 mph 66 % 0.00 in
08:16 47.3 °F 36.5 °F 29.54 in WNW 5.2 mph 11.5 mph 66 % 0.00 in
08:22 47.6 °F 36.4 °F 29.54 in West 3.9 mph 9.2 mph 65 % 0.00 in
08:27 47.9 °F 36.3 °F 29.54 in SW 6.3 mph 12.7 mph 64 % 0.00 in
08:32 48.2 °F 36.6 °F 29.54 in SW 5.7 mph 12.0 mph 64 % 0.00 in
08:37 48.4 °F 36.4 °F 29.54 in SW 8.6 mph 12.7 mph 63 % 0.00 in
08:42 48.5 °F 36.5 °F 29.54 in SW 8.4 mph 14.0 mph 63 % 0.00 in
08:47 48.5 °F 36.1 °F 29.54 in SW 6.2 mph 11.0 mph 62 % 0.00 in
08:52 48.8 °F 36.4 °F 29.54 in WNW 4.8 mph 9.2 mph 62 % 0.00 in
08:57 49.0 °F 36.5 °F 29.54 in WSW 4.4 mph 8.1 mph 62 % 0.00 in
09:02 48.7 °F 35.8 °F 29.55 in West 7.7 mph 11.5 mph 61 % 0.00 in
09:07 48.2 °F 35.4 °F 29.55 in WSW 5.6 mph 12.0 mph 61 % 0.00 in
09:13 47.8 °F 35.4 °F 29.55 in WSW 11.5 mph 13.0 mph 62 % 0.00 in
09:18 47.5 °F 35.1 °F 29.55 in WSW 4.2 mph 9.2 mph 62 % 0.00 in
09:23 47.5 °F 35.1 °F 29.55 in West 5.9 mph 10.4 mph 62 % 0.00 in
09:28 47.5 °F 35.5 °F 29.55 in WNW 3.6 mph 5.8 mph 63 % 0.00 in
09:33 47.6 °F 35.6 °F 29.55 in WSW 10.9 mph 17.3 mph 63 % 0.00 in
09:38 47.7 °F 36.1 °F 29.55 in WSW 9.4 mph 16.1 mph 64 % 0.00 in
09:43 47.7 °F 35.3 °F 29.55 in WSW 5.7 mph 13.8 mph 62 % 0.00 in
09:48 47.6 °F 35.2 °F 29.55 in WSW 7.5 mph 15.0 mph 62 % 0.00 in
09:53 47.6 °F 35.2 °F 29.55 in WSW 6.5 mph 16.1 mph 62 % 0.00 in
09:58 47.6 °F 35.2 °F 29.55 in West 8.8 mph 11.5 mph 62 % 0.00 in
10:04 47.6 °F 35.6 °F 29.55 in SW 9.8 mph 15.0 mph 63 % 0.00 in
10:09 47.7 °F 36.1 °F 29.55 in West 7.7 mph 11.5 mph 64 % 0.00 in
10:14 47.8 °F 35.8 °F 29.55 in SW 8.2 mph 16.1 mph 63 % 0.00 in
10:19 47.9 °F 35.9 °F 29.55 in West 6.1 mph 9.2 mph 63 % 0.00 in
10:24 47.8 °F 35.4 °F 29.55 in WSW 6.4 mph 12.7 mph 62 % 0.00 in
10:29 47.7 °F 35.3 °F 29.55 in NW 3.6 mph 4.6 mph 62 % 0.00 in
10:34 47.9 °F 35.5 °F 29.55 in WSW 7.0 mph 11.5 mph 62 % 0.00 in
10:39 48.1 °F 35.7 °F 29.56 in South 5.8 mph 15.0 mph 62 % 0.00 in
10:44 48.0 °F 35.6 °F 29.56 in SW 8.3 mph 10.4 mph 62 % 0.00 in
10:49 47.8 °F 35.8 °F 29.56 in NW 4.7 mph 9.2 mph 63 % 0.00 in
10:55 47.6 °F 35.6 °F 29.56 in WNW 4.7 mph 9.2 mph 63 % 0.00 in
11:00 47.1 °F 34.3 °F 29.57 in WNW 5.0 mph 5.8 mph 61 % 0.00 in
11:05 46.6 °F 34.7 °F 29.57 in WSW 8.2 mph 13.8 mph 63 % 0.00 in
11:10 46.2 °F 35.1 °F 29.57 in West 5.6 mph 12.7 mph 65 % 0.00 in
11:15 46.0 °F 35.3 °F 29.57 in WNW 5.6 mph 11.5 mph 66 % 0.00 in
11:20 45.7 °F 35.4 °F 29.57 in WSW 4.5 mph 9.2 mph 67 % 0.00 in
11:25 45.5 °F 35.2 °F 29.57 in West 6.2 mph 13.0 mph 67 % 0.00 in
11:30 45.3 °F 34.2 °F 29.57 in SW 7.4 mph 11.5 mph 65 % 0.00 in
11:35 45.5 °F 34.8 °F 29.58 in WSW 6.4 mph 11.5 mph 66 % 0.00 in
11:40 46.1 °F 35.0 °F 29.58 in West 8.4 mph 10.4 mph 65 % 0.00 in
11:46 46.4 °F 34.1 °F 29.58 in WSW 7.9 mph 16.1 mph 62 % 0.00 in
11:51 46.5 °F 33.4 °F 29.58 in WSW 3.7 mph 10.4 mph 60 % 0.00 in
11:56 46.8 °F 33.6 °F 29.58 in WSW 6.9 mph 10.4 mph 60 % 0.00 in
12:01 47.7 °F 34.5 °F 29.58 in South 6.4 mph 10.4 mph 60 % 0.00 in
12:06 48.5 °F 33.9 °F 29.58 in West 6.4 mph 13.8 mph 57 % 0.00 in
12:11 48.5 °F 33.1 °F 29.58 in WSW 7.5 mph 12.7 mph 55 % 0.00 in
12:16 49.0 °F 34.4 °F 29.58 in South 8.3 mph 13.8 mph 57 % 0.00 in
12:21 50.0 °F 34.9 °F 29.57 in West 5.9 mph 11.5 mph 56 % 0.00 in
12:26 50.8 °F 35.2 °F 29.57 in West 5.8 mph 9.0 mph 55 % 0.00 in
12:31 51.3 °F 34.3 °F 29.57 in West 7.8 mph 9.2 mph 52 % 0.00 in
12:37 51.5 °F 33.0 °F 29.57 in SW 7.2 mph 16.1 mph 49 % 0.00 in
12:42 51.8 °F 33.7 °F 29.58 in West 12.8 mph 20.7 mph 50 % 0.00 in
12:47 52.0 °F 33.9 °F 29.57 in WSW 8.9 mph 17.3 mph 50 % 0.00 in
12:52 51.5 °F 33.5 °F 29.57 in WSW 6.6 mph 11.5 mph 50 % 0.00 in
12:57 51.3 °F 33.8 °F 29.57 in NW 5.6 mph 6.9 mph 51 % 0.00 in
13:02 51.2 °F 33.2 °F 29.57 in SW 8.9 mph 15.0 mph 50 % 0.01 in
13:07 50.8 °F 33.3 °F 29.58 in WSW 6.0 mph 11.5 mph 51 % 0.01 in
13:12 51.1 °F 34.1 °F 29.57 in West 3.8 mph 6.9 mph 52 % 0.01 in
13:17 51.5 °F 34.4 °F 29.57 in West 5.3 mph 11.0 mph 52 % 0.01 in
13:22 51.1 °F 33.1 °F 29.57 in SW 8.0 mph 15.0 mph 50 % 0.05 in
13:28 50.5 °F 34.0 °F 29.57 in WSW 5.1 mph 11.5 mph 53 % 0.10 in
13:33 49.7 °F 32.8 °F 29.57 in SW 7.5 mph 17.3 mph 52 % 0.12 in
13:38 49.0 °F 32.1 °F 29.57 in SSW 8.2 mph 16.1 mph 52 % 0.13 in
13:43 48.7 °F 32.8 °F 29.58 in West 5.0 mph 8.1 mph 54 % 0.13 in
13:48 48.3 °F 31.5 °F 29.58 in WSW 11.7 mph 18.4 mph 52 % 0.13 in
13:53 48.1 °F 31.8 °F 29.58 in WSW 10.4 mph 19.6 mph 53 % 0.13 in
13:58 47.9 °F 32.9 °F 29.59 in SW 8.6 mph 13.0 mph 56 % 0.13 in
14:03 47.8 °F 33.7 °F 29.59 in West 4.1 mph 11.0 mph 58 % 0.12 in
14:08 47.5 °F 33.0 °F 29.59 in WSW 7.8 mph 13.0 mph 57 % 0.12 in
14:19 46.8 °F 33.2 °F 29.59 in WSW 5.8 mph 8.1 mph 59 % 0.12 in
14:24 46.9 °F 33.3 °F 29.59 in WNW 9.7 mph 12.7 mph 59 % 0.07 in
14:29 47.1 °F 33.1 °F 29.59 in SW 6.2 mph 15.0 mph 58 % 0.03 in
14:34 47.5 °F 33.4 °F 29.59 in West 7.4 mph 16.1 mph 58 % 0.00 in
14:39 47.8 °F 33.3 °F 29.60 in SW 5.2 mph 11.5 mph 57 % 0.00 in
14:44 48.1 °F 32.7 °F 29.60 in WSW 10.7 mph 17.3 mph 55 % 0.00 in
14:49 47.7 °F 31.4 °F 29.60 in WSW 6.8 mph 12.7 mph 53 % 0.00 in
14:54 47.3 °F 31.5 °F 29.60 in SW 2.8 mph 19.6 mph 54 % 0.00 in
14:59 46.8 °F 31.0 °F 29.60 in WSW 5.8 mph 11.5 mph 54 % 0.00 in
15:04 46.4 °F 29.7 °F 29.60 in West 7.6 mph 13.8 mph 52 % 0.00 in
15:10 46.4 °F 30.2 °F 29.60 in WSW 8.2 mph 12.7 mph 53 % 0.00 in
15:15 46.5 °F 30.7 °F 29.60 in WSW 9.0 mph 11.0 mph 54 % 0.00 in
15:20 47.1 °F 29.9 °F 29.60 in WSW 6.0 mph 17.3 mph 51 % 0.00 in
15:25 47.6 °F 29.9 °F 29.60 in WNW 7.3 mph 10.4 mph 50 % 0.00 in
15:35 47.5 °F 28.8 °F 29.61 in WSW 5.5 mph 11.5 mph 48 % 0.00 in
15:40 47.3 °F 28.6 °F 29.61 in West 11.3 mph 19.6 mph 48 % 0.00 in
15:45 47.3 °F 28.1 °F 29.61 in WSW 5.8 mph 12.0 mph 47 % 0.00 in
15:50 47.4 °F 28.7 °F 29.61 in SW 10.0 mph 17.3 mph 48 % 0.00 in
15:55 47.9 °F 27.6 °F 29.61 in WSW 12.6 mph 21.9 mph 45 % 0.00 in
16:01 48.1 °F 28.3 °F 29.61 in SW 9.4 mph 15.0 mph 46 % 0.00 in
16:06 48.0 °F 27.6 °F 29.61 in SW 6.4 mph 15.0 mph 45 % 0.00 in
16:11 47.7 °F 27.9 °F 29.62 in NW 8.3 mph 18.4 mph 46 % 0.00 in
16:16 47.3 °F 28.6 °F 29.62 in West 11.2 mph 19.6 mph 48 % 0.00 in
16:21 46.9 °F 28.2 °F 29.62 in West 4.0 mph 8.1 mph 48 % 0.00 in
16:26 46.9 °F 29.2 °F 29.62 in WSW 6.4 mph 11.5 mph 50 % 0.00 in
16:31 47.0 °F 28.8 °F 29.62 in SW 7.6 mph 10.4 mph 49 % 0.00 in
16:41 47.1 °F 28.9 °F 29.63 in WSW 7.1 mph 12.7 mph 49 % 0.00 in
16:47 46.7 °F 28.0 °F 29.63 in West 5.5 mph 16.1 mph 48 % 0.00 in
16:52 46.5 °F 29.3 °F 29.63 in WNW 5.4 mph 15.0 mph 51 % 0.00 in
16:57 46.4 °F 28.8 °F 29.64 in SW 9.4 mph 16.1 mph 50 % 0.00 in
17:02 46.2 °F 28.6 °F 29.64 in WSW 9.6 mph 17.3 mph 50 % 0.00 in
17:07 46.1 °F 29.0 °F 29.64 in WSW 9.5 mph 16.1 mph 51 % 0.00 in
17:12 46.1 °F 28.5 °F 29.65 in West 4.8 mph 11.5 mph 50 % 0.00 in
17:17 46.1 °F 28.0 °F 29.65 in NW 8.8 mph 13.0 mph 49 % 0.00 in
17:22 46.1 °F 28.0 °F 29.65 in SW 4.6 mph 8.1 mph 49 % 0.00 in
17:27 46.3 °F 28.7 °F 29.65 in WNW 7.1 mph 9.2 mph 50 % 0.00 in
17:33 46.3 °F 27.7 °F 29.65 in NNW 4.0 mph 13.0 mph 48 % 0.00 in
17:38 46.1 °F 27.0 °F 29.65 in West 8.3 mph 12.7 mph 47 % 0.00 in
17:43 46.0 °F 27.4 °F 29.65 in WSW 7.5 mph 15.0 mph 48 % 0.00 in
17:48 46.0 °F 27.9 °F 29.66 in WSW 7.9 mph 16.1 mph 49 % 0.00 in
17:53 45.9 °F 27.8 °F 29.66 in NW 5.7 mph 10.4 mph 49 % 0.00 in
17:58 45.9 °F 27.3 °F 29.66 in WSW 6.2 mph 11.5 mph 48 % 0.00 in
18:03 45.9 °F 28.3 °F 29.66 in WNW 3.0 mph 8.1 mph 50 % 0.00 in
18:08 46.0 °F 28.4 °F 29.66 in West 4.3 mph 9.2 mph 50 % 0.00 in
18:13 46.0 °F 28.4 °F 29.67 in SW 5.7 mph 9.2 mph 50 % 0.00 in
18:18 46.0 °F 28.4 °F 29.67 in West 3.6 mph 4.6 mph 50 % 0.00 in
18:29 45.9 °F 27.8 °F 29.67 in WNW 6.4 mph 16.1 mph 49 % 0.00 in
18:34 45.9 °F 27.3 °F 29.67 in West 5.4 mph 12.7 mph 48 % 0.00 in
18:39 45.8 °F 27.2 °F 29.68 in NW 8.0 mph 15.0 mph 48 % 0.00 in
18:44 45.7 °F 27.1 °F 29.68 in WNW 6.6 mph 11.5 mph 48 % 0.00 in
18:49 45.6 °F 27.5 °F 29.68 in SW 6.2 mph 11.5 mph 49 % 0.00 in
18:54 45.4 °F 27.8 °F 29.69 in WNW 6.1 mph 12.0 mph 50 % 0.00 in
18:59 45.2 °F 28.1 °F 29.69 in West 3.6 mph 6.9 mph 51 % 0.00 in
19:04 45.1 °F 28.5 °F 29.70 in WNW 2.7 mph 5.0 mph 52 % 0.00 in
19:09 44.9 °F 28.3 °F 29.70 in NW 5.6 mph 9.2 mph 52 % 0.00 in
19:15 44.8 °F 28.2 °F 29.70 in NW 3.2 mph 8.1 mph 52 % 0.00 in
19:20 44.7 °F 28.6 °F 29.71 in NNW 5.4 mph 6.9 mph 53 % 0.00 in
19:25 44.6 °F 28.5 °F 29.71 in WNW 4.2 mph 9.2 mph 53 % 0.00 in
19:30 44.5 °F 28.9 °F 29.71 in WNW 3.6 mph 8.1 mph 54 % 0.00 in
19:35 44.5 °F 28.9 °F 29.71 in WNW 3.2 mph 6.0 mph 54 % 0.00 in
19:40 44.3 °F 28.7 °F 29.72 in WNW 0.5 mph 2.3 mph 54 % 0.00 in
19:45 44.3 °F 28.7 °F 29.72 in NW 3.3 mph 6.0 mph 54 % 0.00 in
19:50 44.2 °F 29.0 °F 29.72 in WSW 3.0 mph 6.0 mph 55 % 0.00 in
19:55 44.1 °F 28.9 °F 29.73 in WSW 3.8 mph 6.9 mph 55 % 0.00 in
20:00 44.0 °F 28.4 °F 29.73 in West 1.2 mph 3.5 mph 54 % 0.00 in
20:06 43.9 °F 28.8 °F 29.73 in WNW 1.0 mph 3.5 mph 55 % 0.00 in
20:11 43.9 °F 29.2 °F 29.73 in West 2.0 mph 6.9 mph 56 % 0.00 in
20:16 43.9 °F 29.6 °F 29.73 in West 4.2 mph 6.9 mph 57 % 0.00 in
20:21 43.8 °F 29.5 °F 29.74 in WNW 2.8 mph 4.6 mph 57 % 0.00 in
20:31 43.8 °F 28.7 °F 29.74 in NNW 4.1 mph 6.0 mph 55 % 0.00 in
20:36 43.8 °F 29.1 °F 29.75 in WNW 3.1 mph 5.8 mph 56 % 0.00 in
20:41 43.9 °F 30.5 °F 29.75 in West 4.6 mph 6.0 mph 59 % 0.00 in
20:46 43.9 °F 30.5 °F 29.75 in WNW 2.7 mph 6.9 mph 59 % 0.00 in
20:51 43.9 °F 30.1 °F 29.76 in NW 2.8 mph 7.0 mph 58 % 0.00 in
20:57 43.9 °F 29.6 °F 29.76 in WNW 3.3 mph 5.8 mph 57 % 0.00 in
21:02 43.8 °F 30.0 °F 29.76 in NW 5.3 mph 11.0 mph 58 % 0.00 in
21:07 43.8 °F 30.0 °F 29.76 in WNW 4.0 mph 8.1 mph 58 % 0.00 in
21:12 43.8 °F 30.0 °F 29.77 in WNW 5.7 mph 9.2 mph 58 % 0.00 in
21:17 43.7 °F 29.5 °F 29.76 in WNW 3.1 mph 5.8 mph 57 % 0.00 in
21:22 43.6 °F 29.8 °F 29.76 in NW 4.5 mph 6.9 mph 58 % 0.00 in
21:32 43.4 °F 29.2 °F 29.77 in WSW 3.8 mph 6.9 mph 57 % 0.00 in
21:37 43.3 °F 29.5 °F 29.77 in WNW 2.4 mph 3.5 mph 58 % 0.00 in
21:42 43.3 °F 29.5 °F 29.77 in WNW 4.4 mph 8.1 mph 58 % 0.00 in
21:48 43.1 °F 29.3 °F 29.77 in NNW 4.1 mph 5.8 mph 58 % 0.00 in
21:53 43.1 °F 29.3 °F 29.77 in West 3.4 mph 9.2 mph 58 % 0.00 in
21:58 43.0 °F 29.2 °F 29.77 in WNW 4.6 mph 6.9 mph 58 % 0.00 in
22:03 42.9 °F 29.1 °F 29.76 in WNW 5.6 mph 8.1 mph 58 % 0.00 in
22:08 42.9 °F 29.5 °F 29.76 in WNW 3.9 mph 10.0 mph 59 % 0.00 in
22:13 42.8 °F 29.5 °F 29.76 in NW 3.2 mph 6.9 mph 59 % 0.00 in
22:18 42.7 °F 29.4 °F 29.77 in WNW 4.5 mph 6.9 mph 59 % 0.00 in
22:23 42.6 °F 29.3 °F 29.76 in WNW 4.0 mph 8.1 mph 59 % 0.00 in
22:28 42.5 °F 29.6 °F 29.77 in WNW 2.7 mph 5.8 mph 60 % 0.00 in
22:33 42.4 °F 28.7 °F 29.76 in West 4.0 mph 5.8 mph 58 % 0.00 in
22:39 42.4 °F 29.1 °F 29.77 in West 3.2 mph 4.6 mph 59 % 0.00 in
22:44 42.3 °F 29.0 °F 29.76 in WNW 0.3 mph 4.6 mph 59 % 0.00 in
22:49 42.2 °F 29.3 °F 29.77 in NNW 2.9 mph 7.0 mph 60 % 0.00 in
22:54 42.1 °F 29.2 °F 29.76 in WNW 0.5 mph 1.2 mph 60 % 0.00 in
22:59 42.0 °F 29.1 °F 29.76 in WNW 1.9 mph 3.5 mph 60 % 0.00 in
23:04 41.8 °F 28.9 °F 29.76 in WNW 1.3 mph 3.0 mph 60 % 0.00 in
23:09 41.7 °F 28.8 °F 29.77 in NW 0.1 mph 2.3 mph 60 % 0.00 in
23:14 41.6 °F 28.3 °F 29.77 in NW 3.7 mph 4.6 mph 59 % 0.00 in
23:19 41.5 °F 28.6 °F 29.77 in NNW 1.8 mph 3.5 mph 60 % 0.00 in
23:25 41.4 °F 28.5 °F 29.77 in North 3.5 mph 7.0 mph 60 % 0.00 in
23:30 41.3 °F 28.4 °F 29.77 in NW 2.2 mph 4.6 mph 60 % 0.00 in
23:35 41.2 °F 28.4 °F 29.77 in NW 3.1 mph 3.5 mph 60 % 0.00 in
23:40 41.1 °F 28.3 °F 29.76 in NW 1.5 mph 4.6 mph 60 % 0.00 in
23:50 40.9 °F 28.5 °F 29.76 in NW 1.5 mph 5.0 mph 61 % 0.00 in
23:55 40.9 °F 28.1 °F 29.76 in NNW 2.4 mph 3.5 mph 60 % 0.00 in
Crab Meadow Weather
Compliments of Weather Underground - 3 mb

Script developed by  Jim McMurry - jmcmurry@mwt.net Adapted for the template by  Wim van der Kuil - Leuven-Template.eu

Weather Terms: Squall line - A line of thunderstorms or squalls which may extend over several hundred miles.